createdAt,value
2019-03-01T00:01:27.267Z,11.17
2019-03-01T00:06:26.552Z,11.87
2019-03-01T00:11:37.302Z,21.53
2019-03-01T00:16:30.978Z,13.52
2019-03-01T00:21:30.852Z,16.42
2019-03-01T00:26:36.707Z,27.21
2019-03-01T00:31:51.172Z,23.93
2019-03-01T00:36:42.892Z,37.26
2019-03-01T00:41:46.352Z,21.48
2019-03-01T00:46:50.103Z,14.57
2019-03-01T00:51:53.800Z,19.47
2019-03-01T00:56:52.474Z,33.68
2019-03-01T01:02:03.748Z,13.08
2019-03-01T01:07:21.394Z,11.73
2019-03-01T01:12:11.958Z,11.90
2019-03-01T01:17:14.956Z,11.59
2019-03-01T01:22:17.039Z,12.68
2019-03-01T01:27:15.525Z,13.14
2019-03-01T01:32:28.240Z,12.76
2019-03-01T01:37:26.403Z,10.60
2019-03-01T01:42:37.764Z,12.39
2019-03-01T01:47:37.876Z,12.52
2019-03-01T01:52:39.566Z,11.17
2019-03-01T01:57:39.293Z,12.07
2019-03-01T02:02:57.336Z,13.57
2019-03-01T02:07:58.454Z,11.36
2019-03-01T02:13:04.709Z,11.94
2019-03-01T02:18:04.246Z,11.62
2019-03-01T02:23:17.407Z,12.48
2019-03-01T02:28:17.400Z,15.10
2019-03-01T02:33:35.561Z,12.96
2019-03-01T02:38:34.226Z,10.34
2019-03-01T02:43:45.267Z,11.78
2019-03-01T02:48:46.030Z,9.84
2019-03-01T02:53:47.225Z,12.80
2019-03-01T02:58:47.574Z,11.14
2019-03-01T03:03:48.122Z,12.18
2019-03-01T03:09:08.402Z,10.74
2019-03-01T03:13:48.131Z,10.76
2019-03-01T03:19:01.436Z,10.31
2019-03-01T03:24:02.364Z,10.86
2019-03-01T03:29:08.467Z,11.00
2019-03-01T03:34:10.838Z,11.33
2019-03-01T03:39:13.088Z,10.99
2019-03-01T03:44:14.836Z,9.16
2019-03-01T03:49:24.744Z,10.04
2019-03-01T03:54:25.593Z,10.30
2019-03-01T03:59:27.266Z,10.01
2019-03-01T04:04:25.455Z,11.04
2019-03-01T04:09:34.900Z,12.95
2019-03-01T04:14:43.405Z,9.31
2019-03-01T04:19:53.279Z,10.21
2019-03-01T04:25:09.902Z,11.26
2019-03-01T04:30:18.894Z,11.93
2019-03-01T04:35:27.769Z,9.22
2019-03-01T04:40:40.982Z,10.19
2019-03-01T04:45:44.851Z,10.08
2019-03-01T04:50:49.074Z,10.76
2019-03-01T04:55:42.428Z,10.11
2019-03-01T05:01:02.499Z,10.98
2019-03-01T05:05:49.915Z,13.63
2019-03-01T05:11:03.097Z,11.08
2019-03-01T05:16:10.171Z,9.89
2019-03-01T05:21:27.462Z,11.40
2019-03-01T05:26:24.796Z,9.64
2019-03-01T05:31:38.001Z,8.85
2019-03-01T05:36:33.856Z,10.21
2019-03-01T05:41:42.281Z,9.99
2019-03-01T05:46:57.242Z,9.83
2019-03-01T05:51:54.425Z,9.26
2019-03-01T05:57:10.653Z,11.10
2019-03-01T06:02:11.362Z,7.94
2019-03-01T06:07:11.545Z,10.90
2019-03-01T06:12:18.104Z,10.38
2019-03-01T06:17:11.340Z,8.41
2019-03-01T06:22:19.765Z,9.63
2019-03-01T06:27:25.183Z,9.48
2019-03-01T06:32:27.107Z,9.75
2019-03-01T06:37:27.456Z,9.87
2019-03-01T06:42:37.504Z,12.24
2019-03-01T06:47:28.919Z,11.23
2019-03-01T06:52:38.779Z,7.95
2019-03-01T06:57:53.395Z,8.50
2019-03-01T07:03:05.627Z,10.10
2019-03-01T07:07:57.009Z,8.84
2019-03-01T07:13:11.972Z,9.26
2019-03-01T07:18:00.859Z,7.45
2019-03-01T07:23:14.084Z,9.53
2019-03-01T07:28:18.818Z,11.54
2019-03-01T07:33:23.572Z,10.55
2019-03-01T07:38:23.158Z,10.29
2019-03-01T07:43:34.946Z,12.30
2019-03-01T07:48:37.644Z,10.17
2019-03-01T07:53:41.861Z,9.12
2019-03-01T07:58:41.119Z,8.63
2019-03-01T08:03:43.182Z,12.11
2019-03-01T08:08:44.290Z,9.89
2019-03-01T08:13:52.940Z,12.10
2019-03-01T08:18:49.151Z,12.25
2019-03-01T08:23:59.516Z,9.14
2019-03-01T08:28:59.677Z,12.88
2019-03-01T08:34:09.350Z,9.55
2019-03-01T08:39:10.743Z,10.60
2019-03-01T08:44:12.279Z,10.37
2019-03-01T08:49:13.959Z,12.82
2019-03-01T08:54:12.493Z,10.69
2019-03-01T08:59:27.692Z,10.77
2019-03-01T09:04:50.458Z,12.07
2019-03-01T09:09:34.183Z,10.92
2019-03-01T09:14:39.309Z,10.55
2019-03-01T09:19:40.619Z,12.30
2019-03-01T09:24:50.648Z,12.16
2019-03-01T09:29:48.510Z,13.46
2019-03-01T09:40:05.728Z,17.70
2019-03-01T09:45:10.437Z,14.10
2019-03-01T09:50:17.209Z,13.73
2019-03-01T09:55:26.654Z,14.03
2019-03-01T10:00:30.591Z,13.50
2019-03-01T10:05:30.950Z,13.93
2019-03-01T10:10:34.275Z,11.96
2019-03-01T10:15:34.929Z,10.89
2019-03-01T10:20:36.565Z,12.20
2019-03-01T10:25:37.078Z,11.83
2019-03-01T10:30:42.178Z,12.71
2019-03-01T10:35:35.261Z,12.21
2019-03-01T10:40:51.337Z,10.61
2019-03-01T10:45:55.507Z,11.93
2019-03-01T10:51:01.783Z,10.41
2019-03-01T11:01:14.917Z,11.59
2019-03-01T11:06:10.290Z,14.48
2019-03-01T11:11:29.704Z,13.43
2019-03-01T11:16:30.195Z,15.32
2019-03-01T11:21:31.931Z,12.45
2019-03-01T11:26:29.014Z,10.78
2019-03-01T11:31:38.620Z,13.66
2019-03-01T11:36:46.335Z,11.37
2019-03-01T11:41:46.175Z,11.03
2019-03-01T11:46:52.604Z,10.50
2019-03-01T11:51:51.434Z,13.03
2019-03-01T12:02:05.838Z,12.29
2019-03-01T12:07:09.286Z,11.60
2019-03-01T12:12:13.521Z,13.58
2019-03-01T12:17:13.960Z,16.44
2019-03-01T12:22:17.591Z,15.13
2019-03-01T12:27:19.057Z,16.04
2019-03-01T12:32:28.430Z,14.37
2019-03-01T12:37:27.943Z,16.04
2019-03-01T12:42:40.420Z,14.03
2019-03-01T12:47:43.898Z,14.29
2019-03-01T12:52:42.794Z,14.78
2019-03-01T12:57:54.088Z,14.67
2019-03-01T13:03:05.295Z,14.51
2019-03-01T13:08:15.687Z,13.41
2019-03-01T13:13:12.946Z,15.83
2019-03-01T13:18:16.739Z,12.71
2019-03-01T13:23:17.614Z,14.67
2019-03-01T13:28:29.901Z,17.05
2019-03-01T13:33:28.246Z,16.17
2019-03-01T13:38:41.632Z,18.11
2019-03-01T13:43:40.521Z,14.70
2019-03-01T13:48:56.462Z,13.79
2019-03-01T13:53:48.878Z,15.20
2019-03-01T13:58:53.252Z,15.70
2019-03-01T14:04:04.984Z,15.61
2019-03-01T14:09:07.279Z,14.67
2019-03-01T14:13:47.704Z,14.73
2019-03-01T14:18:54.068Z,14.90
2019-03-01T14:24:03.728Z,16.06
2019-03-01T14:29:16.083Z,15.21
2019-03-01T14:34:27.031Z,14.79
2019-03-01T14:39:18.005Z,16.07
2019-03-01T14:44:17.115Z,19.38
2019-03-01T14:49:26.008Z,17.08
2019-03-01T14:54:36.301Z,18.25
2019-03-01T14:59:41.135Z,15.74
2019-03-01T15:04:45.805Z,16.86
2019-03-01T15:09:46.516Z,17.41
2019-03-01T15:14:49.851Z,13.69
2019-03-01T15:19:46.084Z,16.57
2019-03-01T15:24:55.206Z,14.59
2019-03-01T15:30:05.637Z,13.87
2019-03-01T15:35:36.266Z,12.49
2019-03-01T15:40:33.031Z,18.80
2019-03-01T15:45:43.246Z,16.20
2019-03-01T15:50:42.349Z,16.32
2019-03-01T15:55:49.037Z,13.71
2019-03-01T16:00:58.223Z,16.83
2019-03-01T16:06:02.987Z,16.33
2019-03-01T16:11:09.332Z,19.77
2019-03-01T16:16:18.773Z,20.85
2019-03-01T16:21:22.959Z,18.40
2019-03-01T16:26:29.878Z,18.41
2019-03-01T16:36:26.469Z,16.68
2019-03-01T16:41:26.366Z,19.97
2019-03-01T16:46:31.332Z,19.68
2019-03-01T16:51:32.186Z,18.66
2019-03-01T16:56:39.597Z,17.50
2019-03-01T17:01:46.908Z,18.49
2019-03-01T17:06:49.320Z,17.35
2019-03-01T17:11:50.801Z,19.51
2019-03-01T17:16:52.187Z,20.48
2019-03-01T17:21:56.771Z,19.86
2019-03-01T17:27:02.080Z,18.51
2019-03-01T17:32:01.604Z,20.98
2019-03-01T17:37:09.045Z,22.23
2019-03-01T17:42:21.506Z,16.11
2019-03-01T17:47:17.506Z,19.05
2019-03-01T17:52:24.089Z,16.14
2019-03-01T17:57:29.231Z,15.10
2019-03-01T18:02:35.626Z,12.70
2019-03-01T18:07:37.071Z,12.40
2019-03-01T18:12:38.583Z,13.43
2019-03-01T18:17:46.091Z,11.82
2019-03-01T18:22:55.573Z,17.36
2019-03-01T18:27:54.469Z,15.24
2019-03-01T18:33:16.864Z,13.98
2019-03-01T18:38:13.474Z,16.36
2019-03-01T18:43:18.004Z,17.13
2019-03-01T18:48:17.923Z,15.22
2019-03-01T18:53:19.867Z,15.62
2019-03-01T18:58:22.018Z,16.00
2019-03-01T19:03:28.043Z,13.29
2019-03-01T19:08:30.310Z,15.53
2019-03-01T19:13:32.634Z,16.03
2019-03-01T19:18:36.561Z,21.91
2019-03-01T19:23:37.457Z,20.15
2019-03-01T19:28:51.228Z,24.54
2019-03-01T19:33:45.149Z,23.51
2019-03-01T19:38:46.412Z,24.85
2019-03-01T19:43:57.606Z,20.28
2019-03-01T19:48:57.669Z,26.40
2019-03-01T19:53:46.903Z,19.34
2019-03-01T19:58:47.922Z,19.31
2019-03-01T20:03:58.101Z,25.41
2019-03-01T20:09:01.627Z,22.16
2019-03-01T20:14:05.298Z,21.47
2019-03-01T20:19:02.878Z,19.62
2019-03-01T20:24:14.276Z,18.76
2019-03-01T20:29:13.948Z,23.22
2019-03-01T20:34:24.713Z,25.06
2019-03-01T20:39:24.489Z,27.61
2019-03-01T20:44:34.730Z,24.41
2019-03-01T20:49:39.376Z,23.39
2019-03-01T20:54:38.861Z,21.61
2019-03-01T20:59:40.039Z,19.05
2019-03-01T21:04:52.955Z,19.79
2019-03-01T21:09:46.701Z,26.86
2019-03-01T21:14:54.373Z,42.69
2019-03-01T21:19:52.951Z,23.50
2019-03-01T21:24:53.450Z,25.80
2019-03-01T21:29:55.562Z,26.44
2019-03-01T21:34:57.570Z,25.11
2019-03-01T21:39:59.175Z,20.19
2019-03-01T21:45:13.037Z,18.12
2019-03-01T21:50:21.738Z,20.67
2019-03-01T21:55:36.363Z,18.50
2019-03-01T22:00:38.205Z,15.36
2019-03-01T22:05:40.883Z,18.13
2019-03-01T22:10:43.783Z,41.40
2019-03-01T22:15:52.379Z,40.12
2019-03-01T22:20:53.468Z,21.39
2019-03-01T22:25:56.793Z,23.13
2019-03-01T22:35:57.581Z,20.24
2019-03-01T22:41:07.490Z,29.04
2019-03-01T22:51:14.535Z,19.48
2019-03-01T22:56:16.780Z,17.38
2019-03-01T23:01:26.211Z,18.89
2019-03-01T23:06:19.851Z,18.83
2019-03-01T23:11:19.289Z,24.40
2019-03-01T23:16:19.702Z,24.87
2019-03-01T23:21:27.109Z,20.82
2019-03-01T23:26:26.875Z,19.95
2019-03-01T23:31:39.022Z,22.31
2019-03-01T23:36:35.658Z,26.02
2019-03-01T23:41:49.582Z,20.16
2019-03-01T23:46:54.212Z,19.15
2019-03-01T23:51:54.636Z,20.85
2019-03-01T23:57:05.662Z,23.86
